createdAt,value
2019-03-28T00:00:08.881Z,38.29
2019-03-28T00:01:08.889Z,38.3
2019-03-28T00:02:08.897Z,38.29
2019-03-28T00:03:08.984Z,38.31
2019-03-28T00:04:08.626Z,38.25
2019-03-28T00:05:08.776Z,38.26
2019-03-28T00:06:08.823Z,38.3
2019-03-28T00:07:08.668Z,38.28
2019-03-28T00:08:08.740Z,38.28
2019-03-28T00:09:08.710Z,38.25
2019-03-28T00:10:08.740Z,38.25
2019-03-28T00:11:08.716Z,38.28
2019-03-28T00:12:08.745Z,38.28
2019-03-28T00:13:08.755Z,38.25
2019-03-28T00:14:09.339Z,38.24
2019-03-28T00:15:08.933Z,38.27
2019-03-28T00:16:08.809Z,38.26
2019-03-28T00:17:08.824Z,38.22
2019-03-28T00:18:08.858Z,38.29
2019-03-28T00:19:08.829Z,38.26
2019-03-28T00:20:08.867Z,38.28
2019-03-28T00:21:08.652Z,38.31
2019-03-28T00:22:08.751Z,38.29
2019-03-28T00:23:08.748Z,38.27
2019-03-28T00:24:08.694Z,38.27
2019-03-28T00:25:08.817Z,38.28
2019-03-28T00:26:08.770Z,38.25
2019-03-28T00:27:08.739Z,38.27
2019-03-28T00:28:08.871Z,38.31
2019-03-28T00:29:08.778Z,38.27
2019-03-28T00:30:08.906Z,38.31
2019-03-28T00:31:09.705Z,38.24
2019-03-28T00:32:08.814Z,38.31
2019-03-28T00:33:08.817Z,38.27
2019-03-28T00:34:08.839Z,38.27
2019-03-28T00:35:08.994Z,38.29
2019-03-28T00:36:08.972Z,38.24
2019-03-28T00:37:09.312Z,38.24
2019-03-28T00:38:08.777Z,38.22
2019-03-28T00:39:08.632Z,38.23
2019-03-28T00:40:08.629Z,38.22
2019-03-28T00:41:08.683Z,38.26
2019-03-28T00:42:08.689Z,38.23
2019-03-28T00:43:08.745Z,38.23
2019-03-28T00:44:08.787Z,38.24
2019-03-28T00:45:08.707Z,38.22
2019-03-28T00:46:08.710Z,38.28
2019-03-28T00:47:08.891Z,38.23
2019-03-28T00:48:08.758Z,38.27
2019-03-28T00:49:08.823Z,38.27
2019-03-28T00:50:08.809Z,38.27
2019-03-28T00:51:08.871Z,38.23
2019-03-28T00:52:08.810Z,38.22
2019-03-28T00:53:08.817Z,38.2
2019-03-28T00:54:08.879Z,38.26
2019-03-28T00:55:08.641Z,38.21
2019-03-28T00:56:08.698Z,38.24
2019-03-28T00:57:08.723Z,38.24
2019-03-28T00:58:09.242Z,38.18
2019-03-28T00:59:08.609Z,38.21
2019-03-28T01:00:08.789Z,38.24
2019-03-28T01:01:08.806Z,38.23
2019-03-28T01:02:08.755Z,38.22
2019-03-28T01:03:08.753Z,38.23
2019-03-28T01:04:08.782Z,38.23
2019-03-28T01:05:08.773Z,38.26
2019-03-28T01:06:08.810Z,38.24
2019-03-28T01:07:08.907Z,38.2
2019-03-28T01:08:08.911Z,38.23
2019-03-28T01:09:08.851Z,38.23
2019-03-28T01:10:08.857Z,38.22
2019-03-28T01:11:08.876Z,38.21
2019-03-28T01:12:08.900Z,38.27
2019-03-28T01:13:08.648Z,38.24
2019-03-28T01:14:08.612Z,38.26
2019-03-28T01:15:08.615Z,38.24
2019-03-28T01:16:08.648Z,38.25
2019-03-28T01:17:08.722Z,38.25
2019-03-28T01:18:08.733Z,38.23
2019-03-28T01:19:08.848Z,38.26
2019-03-28T01:20:08.717Z,38.27
2019-03-28T01:21:08.743Z,38.22
2019-03-28T01:22:08.917Z,38.23
2019-03-28T01:23:08.780Z,38.26
2019-03-28T01:24:08.747Z,38.27
2019-03-28T01:25:08.837Z,38.27
2019-03-28T01:26:08.545Z,38.26
2019-03-28T01:27:08.983Z,38.26
2019-03-28T01:28:08.862Z,38.26
2019-03-28T01:29:08.829Z,38.27
2019-03-28T01:30:08.973Z,38.26
2019-03-28T01:31:08.645Z,38.3
2019-03-28T01:32:08.652Z,38.22
2019-03-28T01:33:08.784Z,38.26
2019-03-28T01:34:08.691Z,38.28
2019-03-28T01:35:08.834Z,38.25
2019-03-28T01:36:08.841Z,38.23
2019-03-28T01:37:08.782Z,38.25
2019-03-28T01:38:08.837Z,38.27
2019-03-28T01:39:08.837Z,38.21
2019-03-28T01:40:08.878Z,38.23
2019-03-28T01:41:08.901Z,38.22
2019-03-28T01:42:08.857Z,38.29
2019-03-28T01:43:08.830Z,38.25
2019-03-28T01:44:08.920Z,38.27
2019-03-28T01:45:08.892Z,38.22
2019-03-28T01:46:08.860Z,38.22
2019-03-28T01:47:08.621Z,38.25
2019-03-28T01:48:08.708Z,38.25
2019-03-28T01:49:08.664Z,38.25
2019-03-28T01:50:08.687Z,38.21
2019-03-28T01:51:08.711Z,38.24
2019-03-28T01:52:08.670Z,38.24
2019-03-28T01:53:08.428Z,38.24
2019-03-28T01:54:08.744Z,38.3
2019-03-28T01:55:08.781Z,38.24
2019-03-28T01:56:08.910Z,38.25
2019-03-28T01:57:11.839Z,38.25
2019-03-28T01:58:08.812Z,38.21
2019-03-28T01:59:08.499Z,38.23
2019-03-28T02:00:08.782Z,38.21
2019-03-28T02:01:09.149Z,38.2
2019-03-28T02:02:09.056Z,38.26
2019-03-28T02:03:08.803Z,38.23
2019-03-28T02:04:08.854Z,38.22
2019-03-28T02:05:08.611Z,38.25
2019-03-28T02:06:09.394Z,38.26
2019-03-28T02:07:08.672Z,38.25
2019-03-28T02:08:08.734Z,38.23
2019-03-28T02:09:08.725Z,38.22
2019-03-28T02:10:08.940Z,38.29
2019-03-28T02:11:08.704Z,38.26
2019-03-28T02:12:08.833Z,38.26
2019-03-28T02:13:08.757Z,38.19
2019-03-28T02:14:08.790Z,38.26
2019-03-28T02:15:08.758Z,38.23
2019-03-28T02:16:08.849Z,38.24
2019-03-28T02:17:08.849Z,38.27
2019-03-28T02:18:08.808Z,38.25
2019-03-28T02:19:08.817Z,38.24
2019-03-28T02:20:08.832Z,38.22
2019-03-28T02:21:09.763Z,38.25
2019-03-28T02:22:08.939Z,38.25
2019-03-28T02:23:08.330Z,38.26
2019-03-28T02:24:08.313Z,38.22
2019-03-28T02:25:08.731Z,38.22
2019-03-28T02:26:09.320Z,38.25
2019-03-28T02:27:08.680Z,38.22
2019-03-28T02:28:08.633Z,38.22
2019-03-28T02:29:08.656Z,38.23
2019-03-28T02:30:08.699Z,38.29
2019-03-28T02:31:08.711Z,38.25
2019-03-28T02:32:08.732Z,38.23
2019-03-28T02:33:08.710Z,38.19
2019-03-28T02:34:08.788Z,38.24
2019-03-28T02:35:08.745Z,38.21
2019-03-28T02:36:08.771Z,38.2
2019-03-28T02:37:08.555Z,38.23
2019-03-28T02:38:08.805Z,38.24
2019-03-28T02:39:08.998Z,38.22
2019-03-28T02:40:08.702Z,38.23
2019-03-28T02:41:09.078Z,38.21
2019-03-28T02:42:08.681Z,38.21
2019-03-28T02:43:08.568Z,38.25
2019-03-28T02:44:08.931Z,38.23
2019-03-28T02:45:09.080Z,38.24
2019-03-28T02:46:08.667Z,38.22
2019-03-28T02:47:08.790Z,38.2
2019-03-28T02:48:08.715Z,38.24
2019-03-28T02:49:08.760Z,38.2
2019-03-28T02:50:08.878Z,38.24
2019-03-28T02:51:08.833Z,38.22
2019-03-28T02:52:08.831Z,38.23
2019-03-28T02:53:08.884Z,38.2
2019-03-28T02:54:08.842Z,38.19
2019-03-28T02:55:08.842Z,38.2
2019-03-28T02:56:08.851Z,38.2
2019-03-28T02:57:08.923Z,38.19
2019-03-28T02:58:08.939Z,38.2
2019-03-28T02:59:08.550Z,38.2
2019-03-28T03:00:08.667Z,38.14
2019-03-28T03:01:08.624Z,38.19
2019-03-28T03:02:08.765Z,38.21
2019-03-28T03:03:08.603Z,38.19
2019-03-28T03:04:08.811Z,38.19
2019-03-28T03:05:09.044Z,38.21
2019-03-28T03:06:08.699Z,38.23
2019-03-28T03:07:08.671Z,38.22
2019-03-28T03:08:08.720Z,38.2
2019-03-28T03:09:08.716Z,38.22
2019-03-28T03:10:08.812Z,38.19
2019-03-28T03:11:09.821Z,38.21
2019-03-28T03:12:08.802Z,38.25
2019-03-28T03:13:08.933Z,38.21
2019-03-28T03:14:08.809Z,38.24
2019-03-28T03:15:08.772Z,38.22
2019-03-28T03:16:08.622Z,38.23
2019-03-28T03:17:08.593Z,38.21
2019-03-28T03:18:08.656Z,38.18
2019-03-28T03:19:08.675Z,38.18
2019-03-28T03:20:08.642Z,38.22
2019-03-28T03:21:10.281Z,38.18
2019-03-28T03:22:08.796Z,38.18
2019-03-28T03:23:08.707Z,38.24
2019-03-28T03:24:08.759Z,38.19
2019-03-28T03:25:08.755Z,38.24
2019-03-28T03:26:08.756Z,38.16
2019-03-28T03:27:09.485Z,38.18
2019-03-28T03:28:08.791Z,38.13
2019-03-28T03:29:08.777Z,38.17
2019-03-28T03:30:08.915Z,38.18
2019-03-28T03:31:08.924Z,38.16
2019-03-28T03:32:08.852Z,38.16
2019-03-28T03:33:09.656Z,38.2
2019-03-28T03:34:08.599Z,38.2
2019-03-28T03:35:08.729Z,38.19
2019-03-28T03:36:08.581Z,38.16
2019-03-28T03:37:08.631Z,38.19
2019-03-28T03:38:08.663Z,38.17
2019-03-28T03:39:08.876Z,38.16
2019-03-28T03:40:08.620Z,38.18
2019-03-28T03:41:08.670Z,38.15
2019-03-28T03:42:08.824Z,38.19
2019-03-28T03:43:08.665Z,38.18
2019-03-28T03:44:08.713Z,38.23
2019-03-28T03:45:09.839Z,38.13
2019-03-28T03:46:08.720Z,38.16
2019-03-28T03:47:08.752Z,38.17
2019-03-28T03:48:08.947Z,38.16
2019-03-28T03:49:09.003Z,38.16
2019-03-28T03:50:09.898Z,38.15
2019-03-28T03:51:08.573Z,38.13
2019-03-28T03:52:08.546Z,38.17
2019-03-28T03:53:08.638Z,38.17
2019-03-28T03:54:08.657Z,38.13
2019-03-28T03:55:08.636Z,38.17
2019-03-28T03:56:08.794Z,38.19
2019-03-28T03:57:08.753Z,38.16
2019-03-28T03:58:16.939Z,38.19
2019-03-28T03:59:08.688Z,38.16
2019-03-28T04:00:08.701Z,38.15
2019-03-28T04:01:08.762Z,38.16
2019-03-28T04:02:08.882Z,38.13
2019-03-28T04:03:08.843Z,38.19
2019-03-28T04:04:08.760Z,38.16
2019-03-28T04:05:08.840Z,38.17
2019-03-28T04:06:08.854Z,38.13
2019-03-28T04:07:08.535Z,38.15
2019-03-28T04:08:08.529Z,38.15
2019-03-28T04:09:08.572Z,38.14
2019-03-28T04:10:09.607Z,38.13
2019-03-28T04:11:08.673Z,38.17
2019-03-28T04:12:08.352Z,38.13
2019-03-28T04:13:08.619Z,38.19
2019-03-28T04:14:08.668Z,38.15
2019-03-28T04:15:08.633Z,38.18
2019-03-28T04:16:08.729Z,38.11
2019-03-28T04:17:08.770Z,38.12
2019-03-28T04:18:08.748Z,38.13
2019-03-28T04:19:08.728Z,38.17
2019-03-28T04:20:08.768Z,38.14
2019-03-28T04:21:08.746Z,38.13
2019-03-28T04:22:10.245Z,38.12
2019-03-28T04:23:08.577Z,38.13
2019-03-28T04:24:08.662Z,38.1
2019-03-28T04:25:08.726Z,38.12
2019-03-28T04:26:08.609Z,38.13
2019-03-28T04:27:08.659Z,38.15
2019-03-28T04:28:08.721Z,38.14
2019-03-28T04:29:08.726Z,38.09
2019-03-28T04:30:08.686Z,38.08
2019-03-28T04:31:08.923Z,38.15
2019-03-28T04:32:08.697Z,38.13
2019-03-28T04:33:08.707Z,38.08
2019-03-28T04:34:10.023Z,38.12
2019-03-28T04:35:08.882Z,38.13
2019-03-28T04:36:08.805Z,38.14
2019-03-28T04:37:08.777Z,38.11
2019-03-28T04:38:08.811Z,38.14
2019-03-28T04:39:08.850Z,38.09
2019-03-28T04:40:09.111Z,38.08
2019-03-28T04:41:08.606Z,38.11
2019-03-28T04:42:08.557Z,38.12
2019-03-28T04:43:08.595Z,38.11
2019-03-28T04:44:08.626Z,38.1
2019-03-28T04:45:08.781Z,38.1
2019-03-28T04:46:08.667Z,38.09
2019-03-28T04:47:08.653Z,38.09
2019-03-28T04:48:08.601Z,38.1
2019-03-28T04:49:08.770Z,38.09
2019-03-28T04:50:08.695Z,38.05
2019-03-28T04:51:12.003Z,38.04
2019-03-28T04:52:08.712Z,38.06
2019-03-28T04:53:08.740Z,38.07
2019-03-28T04:54:10.130Z,38.12
2019-03-28T04:55:08.800Z,38.15
2019-03-28T04:56:08.876Z,38.18
2019-03-28T04:57:08.611Z,38.17
2019-03-28T04:58:08.584Z,38.13
2019-03-28T04:59:08.586Z,38.12
2019-03-28T05:00:08.644Z,38.08
2019-03-28T05:01:08.657Z,38.06
2019-03-28T05:02:08.665Z,38.03
2019-03-28T05:03:08.689Z,37.99
2019-03-28T05:04:08.681Z,37.98
2019-03-28T05:05:08.694Z,38.02
2019-03-28T05:06:08.729Z,37.96
2019-03-28T05:07:08.760Z,37.91
2019-03-28T05:08:08.724Z,37.94
2019-03-28T05:09:08.780Z,37.93
2019-03-28T05:10:08.814Z,37.98
2019-03-28T05:11:08.794Z,37.94
2019-03-28T05:12:08.790Z,37.99
2019-03-28T05:13:08.529Z,37.96
2019-03-28T05:14:08.589Z,37.99
2019-03-28T05:15:08.711Z,37.98
2019-03-28T05:16:08.630Z,38
2019-03-28T05:17:08.624Z,37.95
2019-03-28T05:18:08.593Z,37.97
2019-03-28T05:19:08.634Z,38.04
2019-03-28T05:20:08.394Z,38.01
2019-03-28T05:21:08.811Z,37.98
2019-03-28T05:22:08.762Z,38.01
2019-03-28T05:23:08.709Z,38.01
2019-03-28T05:24:08.456Z,38.05
2019-03-28T05:25:08.750Z,38.03
2019-03-28T05:26:08.874Z,38.04
2019-03-28T05:27:08.736Z,38.01
2019-03-28T05:28:08.763Z,38
2019-03-28T05:29:08.578Z,37.97
2019-03-28T05:30:08.574Z,38.03
2019-03-28T05:31:08.593Z,38
2019-03-28T05:32:08.598Z,38.03
2019-03-28T05:33:08.638Z,37.99
2019-03-28T05:34:08.727Z,38.02
2019-03-28T05:35:08.771Z,38.02
2019-03-28T05:36:08.706Z,37.95
2019-03-28T05:37:08.824Z,37.99
2019-03-28T05:38:08.707Z,38
2019-03-28T05:39:08.852Z,37.98
2019-03-28T05:40:08.733Z,38
2019-03-28T05:41:08.825Z,38
2019-03-28T05:42:08.795Z,37.95
2019-03-28T05:43:08.888Z,37.99
2019-03-28T05:44:08.734Z,37.98
2019-03-28T05:45:08.517Z,37.96
2019-03-28T05:46:08.524Z,37.93
2019-03-28T05:47:08.574Z,37.94
2019-03-28T05:48:08.522Z,37.98
2019-03-28T05:49:08.292Z,37.88
2019-03-28T05:50:08.600Z,37.91
2019-03-28T05:51:08.525Z,37.9
2019-03-28T05:52:11.893Z,37.94
2019-03-28T05:53:08.642Z,37.85
2019-03-28T05:54:08.637Z,37.92
2019-03-28T05:55:08.689Z,37.89
2019-03-28T05:56:08.669Z,37.88
2019-03-28T05:57:08.853Z,37.91
2019-03-28T05:58:09.874Z,37.83
2019-03-28T05:59:11.626Z,37.88
2019-03-28T06:00:08.759Z,37.86
2019-03-28T06:01:08.543Z,37.94
2019-03-28T06:02:08.599Z,37.83
2019-03-28T06:03:08.586Z,37.84
2019-03-28T06:04:08.600Z,37.86
2019-03-28T06:05:08.622Z,37.79
2019-03-28T06:06:08.630Z,37.79
2019-03-28T06:07:10.280Z,37.84
2019-03-28T06:08:08.628Z,37.84
2019-03-28T06:09:08.701Z,37.76
2019-03-28T06:10:08.725Z,37.8
2019-03-28T06:11:08.707Z,37.79
2019-03-28T06:12:08.732Z,37.79
2019-03-28T06:13:08.764Z,37.75
2019-03-28T06:14:08.771Z,37.79
2019-03-28T06:15:08.782Z,37.77
2019-03-28T06:16:08.757Z,37.81
2019-03-28T06:17:08.785Z,37.77
2019-03-28T06:18:08.474Z,37.68
2019-03-28T06:19:08.762Z,37.74
2019-03-28T06:20:08.708Z,37.72
2019-03-28T06:21:08.576Z,37.79
2019-03-28T06:22:08.600Z,37.75
2019-03-28T06:23:08.583Z,37.71
2019-03-28T06:24:08.624Z,37.71
2019-03-28T06:25:08.650Z,37.69
2019-03-28T06:26:08.742Z,37.75
2019-03-28T06:27:08.615Z,37.71
2019-03-28T06:28:08.671Z,37.72
2019-03-28T06:29:08.969Z,37.72
2019-03-28T06:30:08.741Z,37.72
2019-03-28T06:31:08.708Z,37.71
2019-03-28T06:32:08.901Z,37.62
2019-03-28T06:33:08.772Z,37.71
2019-03-28T06:34:08.650Z,37.66
2019-03-28T06:35:08.568Z,37.69
2019-03-28T06:36:08.724Z,37.72
2019-03-28T06:37:08.581Z,37.73
2019-03-28T06:38:08.593Z,37.68
2019-03-28T06:39:08.689Z,37.65
2019-03-28T06:40:08.729Z,37.65
2019-03-28T06:41:08.661Z,37.6
2019-03-28T06:42:08.668Z,37.67
2019-03-28T06:43:08.639Z,37.66
2019-03-28T06:44:08.683Z,37.66
2019-03-28T06:45:08.708Z,37.62
2019-03-28T06:46:08.845Z,37.6
2019-03-28T06:47:08.807Z,37.61
2019-03-28T06:48:08.751Z,37.65
2019-03-28T06:49:08.770Z,37.63
2019-03-28T06:50:09.583Z,37.6
2019-03-28T06:51:08.522Z,37.62
2019-03-28T06:52:08.513Z,37.66
2019-03-28T06:53:08.628Z,37.59
2019-03-28T06:54:08.568Z,37.6
2019-03-28T06:55:08.635Z,37.65
2019-03-28T06:56:08.564Z,37.63
2019-03-28T06:57:08.652Z,37.6
2019-03-28T06:58:08.749Z,37.62
2019-03-28T06:59:08.672Z,37.63
2019-03-28T07:00:08.602Z,37.58
2019-03-28T07:01:08.350Z,37.58
2019-03-28T07:02:08.747Z,37.58
2019-03-28T07:03:08.631Z,37.54
2019-03-28T07:04:08.708Z,37.55
2019-03-28T07:05:08.691Z,37.58
2019-03-28T07:06:08.694Z,37.58
2019-03-28T07:07:08.510Z,37.52
2019-03-28T07:08:08.519Z,37.57
2019-03-28T07:09:08.571Z,37.63
2019-03-28T07:10:08.581Z,37.58
2019-03-28T07:11:08.553Z,37.58
2019-03-28T07:12:08.597Z,37.58
2019-03-28T07:13:08.603Z,37.63
2019-03-28T07:14:08.592Z,37.56
2019-03-28T07:15:08.723Z,37.55
2019-03-28T07:16:08.614Z,37.59
2019-03-28T07:17:08.728Z,37.6
2019-03-28T07:18:08.661Z,37.52
2019-03-28T07:19:08.702Z,37.54
2019-03-28T07:20:09.530Z,37.58
2019-03-28T07:21:08.707Z,37.57
2019-03-28T07:22:08.724Z,37.48
2019-03-28T07:23:09.541Z,37.6
2019-03-28T07:24:08.863Z,37.51
2019-03-28T07:25:08.479Z,37.56
2019-03-28T07:26:08.521Z,37.54
2019-03-28T07:27:08.669Z,37.55
2019-03-28T07:28:09.647Z,37.54
2019-03-28T07:29:08.535Z,37.55
2019-03-28T07:30:08.545Z,37.57
2019-03-28T07:31:08.544Z,37.58
2019-03-28T07:32:08.601Z,37.56
2019-03-28T07:33:08.694Z,37.54
2019-03-28T07:34:08.672Z,37.54
2019-03-28T07:35:08.342Z,37.54
2019-03-28T07:36:09.003Z,37.52
2019-03-28T07:37:08.641Z,37.55
2019-03-28T07:38:08.680Z,37.49
2019-03-28T07:39:08.684Z,37.47
2019-03-28T07:40:08.827Z,37.53
2019-03-28T07:41:08.720Z,37.52
2019-03-28T07:42:08.714Z,37.54
2019-03-28T07:43:08.597Z,37.56
2019-03-28T07:44:08.519Z,37.55
2019-03-28T07:45:08.541Z,37.51
2019-03-28T07:46:08.663Z,37.58
2019-03-28T07:47:08.597Z,37.56
2019-03-28T07:48:08.597Z,37.58
2019-03-28T07:49:08.602Z,37.5
2019-03-28T07:50:08.615Z,37.53
2019-03-28T07:51:08.642Z,37.49
2019-03-28T07:52:08.617Z,37.46
2019-03-28T07:53:08.630Z,37.55
2019-03-28T07:54:08.678Z,37.5
2019-03-28T07:55:08.635Z,37.53
2019-03-28T07:56:08.693Z,37.52
2019-03-28T07:57:08.678Z,37.53
2019-03-28T07:58:09.507Z,37.58
2019-03-28T07:59:08.744Z,37.53
2019-03-28T08:00:08.752Z,37.45
2019-03-28T08:01:08.487Z,37.45
2019-03-28T08:02:08.486Z,37.44
2019-03-28T08:03:08.250Z,37.5
2019-03-28T08:04:08.519Z,37.5
2019-03-28T08:05:08.613Z,37.55
2019-03-28T08:06:08.606Z,37.54
2019-03-28T08:07:08.168Z,37.46
2019-03-28T08:08:08.246Z,37.47
2019-03-28T08:09:08.201Z,37.49
2019-03-28T08:10:08.271Z,37.48
2019-03-28T08:11:08.888Z,37.47
2019-03-28T08:12:23.388Z,37.48
2019-03-28T08:13:08.274Z,37.47
2019-03-28T08:14:08.308Z,37.44
2019-03-28T08:15:08.350Z,37.45
2019-03-28T08:16:08.307Z,37.45
2019-03-28T08:17:08.388Z,37.46
2019-03-28T08:18:08.252Z,37.43
2019-03-28T08:19:08.326Z,37.46
2019-03-28T08:20:08.232Z,37.46
2019-03-28T08:21:08.154Z,37.41
2019-03-28T08:22:08.191Z,37.5
2019-03-28T08:23:08.183Z,37.4
2019-03-28T08:24:08.204Z,37.49
2019-03-28T08:25:12.228Z,37.43
2019-03-28T08:26:08.222Z,37.49
2019-03-28T08:27:08.215Z,37.46
2019-03-28T08:28:08.472Z,37.47
2019-03-28T08:29:08.377Z,37.44
2019-03-28T08:30:19.370Z,37.48
2019-03-28T08:31:08.297Z,37.45
2019-03-28T08:32:09.208Z,37.5
2019-03-28T08:33:08.361Z,37.46
2019-03-28T08:34:08.337Z,37.47
2019-03-28T08:35:08.397Z,37.46
2019-03-28T08:36:08.178Z,37.49
2019-03-28T08:37:08.136Z,37.5
2019-03-28T08:38:10.521Z,37.47
2019-03-28T08:39:08.175Z,37.46
2019-03-28T08:40:08.142Z,37.45
2019-03-28T08:41:08.312Z,37.45
2019-03-28T08:42:08.484Z,37.5
2019-03-28T08:43:08.291Z,37.47
2019-03-28T08:44:08.258Z,37.46
2019-03-28T08:45:08.263Z,37.43
2019-03-28T08:46:09.040Z,37.46
2019-03-28T08:47:08.244Z,37.49
2019-03-28T08:48:08.250Z,37.44
2019-03-28T08:49:08.250Z,37.5
2019-03-28T08:50:08.276Z,37.45
2019-03-28T08:51:08.281Z,37.9
2019-03-28T08:52:12.043Z,37.91
2019-03-28T08:53:08.367Z,37.8
2019-03-28T08:54:08.234Z,38.17
2019-03-28T08:55:10.424Z,38.09
2019-03-28T08:56:08.149Z,38.4
2019-03-28T08:57:08.291Z,38.37
2019-03-28T08:58:08.178Z,38.38
2019-03-28T08:59:08.267Z,38.41
2019-03-28T09:00:08.268Z,38.43
2019-03-28T09:01:08.203Z,38.4
2019-03-28T09:02:08.211Z,38.36
2019-03-28T09:03:08.322Z,38.37
2019-03-28T09:04:08.247Z,38.34
2019-03-28T09:05:08.260Z,38.37
2019-03-28T09:06:08.279Z,38.27
2019-03-28T09:07:08.354Z,38.37
2019-03-28T09:08:08.384Z,38.32
2019-03-28T09:09:08.279Z,38.29
2019-03-28T09:10:08.385Z,38.18
2019-03-28T09:11:08.334Z,38.23
2019-03-28T09:12:08.494Z,38.01
2019-03-28T09:13:08.064Z,37.87
2019-03-28T09:14:08.073Z,37.95
2019-03-28T09:15:08.282Z,37.92
2019-03-28T09:16:08.105Z,37.89
2019-03-28T09:17:08.315Z,37.89
2019-03-28T09:18:08.139Z,37.86
2019-03-28T09:19:08.153Z,37.99
2019-03-28T09:20:08.202Z,37.83
2019-03-28T09:21:08.189Z,37.74
2019-03-28T09:22:08.167Z,37.71
2019-03-28T09:23:08.224Z,38.02
2019-03-28T09:24:08.401Z,37.39
2019-03-28T09:25:08.361Z,36.81
2019-03-28T09:26:08.261Z,36.91
2019-03-28T09:27:08.338Z,36.71
2019-03-28T09:28:08.324Z,36.69
2019-03-28T09:29:08.450Z,36.75
2019-03-28T09:30:08.471Z,37.06
2019-03-28T09:31:20.459Z,36.92
2019-03-28T09:32:08.106Z,36.51
2019-03-28T09:33:08.972Z,36.88
2019-03-28T09:34:08.131Z,36.84
2019-03-28T09:35:08.227Z,37
2019-03-28T09:36:08.200Z,37.12
2019-03-28T09:37:08.192Z,37.19
2019-03-28T09:38:08.283Z,37.21
2019-03-28T09:39:08.192Z,37.25
2019-03-28T09:40:08.220Z,37.25
2019-03-28T09:41:08.274Z,37.27
2019-03-28T09:42:08.314Z,37.32
2019-03-28T09:43:08.261Z,37.32
2019-03-28T09:44:08.271Z,37.34
2019-03-28T09:45:08.277Z,37.35
2019-03-28T09:46:08.394Z,37.37
2019-03-28T09:47:08.439Z,37.33
2019-03-28T09:48:12.140Z,37.36
2019-03-28T09:49:08.077Z,37.38
2019-03-28T09:50:08.159Z,37.34
2019-03-28T09:51:08.063Z,37.31
2019-03-28T09:52:08.087Z,37.32
2019-03-28T09:53:08.108Z,37.29
2019-03-28T09:54:08.192Z,37.31
2019-03-28T09:55:08.132Z,37.32
2019-03-28T09:56:08.150Z,37.34
2019-03-28T09:57:08.161Z,37.35
2019-03-28T09:58:08.167Z,37.29
2019-03-28T09:59:08.175Z,37.34
2019-03-28T10:00:08.185Z,37.37
2019-03-28T10:01:08.258Z,37.35
2019-03-28T10:02:08.245Z,37.33
2019-03-28T10:03:08.303Z,37.36
2019-03-28T10:04:08.254Z,37.37
2019-03-28T10:05:08.262Z,37.39
2019-03-28T10:06:08.274Z,37.35
2019-03-28T10:07:08.367Z,37.38
2019-03-28T10:08:08.073Z,37.37
2019-03-28T10:09:08.404Z,37.39
2019-03-28T10:10:09.469Z,37.43
2019-03-28T10:11:08.113Z,37.44
2019-03-28T10:12:08.123Z,37.37
2019-03-28T10:13:08.224Z,37.36
2019-03-28T10:14:08.497Z,37.38
2019-03-28T10:15:08.169Z,37.38
2019-03-28T10:16:09.779Z,37.39
2019-03-28T10:17:08.194Z,37.41
2019-03-28T10:18:08.216Z,37.44
2019-03-28T10:19:08.277Z,37.4
2019-03-28T10:20:09.196Z,37.42
2019-03-28T10:21:08.262Z,37.45
2019-03-28T10:22:08.317Z,37.45
2019-03-28T10:23:08.282Z,37.7
2019-03-28T10:24:08.348Z,37.71
2019-03-28T10:25:08.313Z,37.75
2019-03-28T10:26:08.375Z,37.48
2019-03-28T10:27:08.062Z,37.55
2019-03-28T10:28:08.066Z,37.6
2019-03-28T10:29:08.133Z,37.67
2019-03-28T10:30:08.145Z,37.67
2019-03-28T10:31:17.034Z,37.79
2019-03-28T10:32:08.115Z,37.77
2019-03-28T10:33:08.143Z,37.7
2019-03-28T10:34:08.118Z,37.68
2019-03-28T10:35:08.141Z,37.76
2019-03-28T10:36:08.157Z,38.09
2019-03-28T10:37:08.424Z,37.77
2019-03-28T10:38:08.210Z,37.9
2019-03-28T10:39:08.317Z,37.94
2019-03-28T10:40:08.213Z,37.86
2019-03-28T10:41:08.214Z,38.07
2019-03-28T10:42:08.251Z,38.01
2019-03-28T10:43:08.258Z,38.19
2019-03-28T10:44:08.409Z,38.23
2019-03-28T10:45:08.361Z,38
2019-03-28T10:46:08.045Z,38.21
2019-03-28T10:47:08.167Z,38.12
2019-03-28T10:48:08.133Z,38.27
2019-03-28T10:49:08.167Z,38.14
2019-03-28T10:50:08.219Z,38.08
2019-03-28T10:51:08.173Z,38.1
2019-03-28T10:52:08.138Z,37.94
2019-03-28T10:53:08.278Z,38.08
2019-03-28T10:54:20.835Z,38.1
2019-03-28T10:55:08.207Z,38.24
2019-03-28T10:56:22.755Z,38.07
2019-03-28T10:57:24.062Z,38.17
2019-03-28T10:58:19.600Z,38.06
2019-03-28T10:59:08.237Z,38.21
2019-03-28T11:00:08.341Z,38.17
2019-03-28T11:01:08.370Z,38.21
2019-03-28T11:02:08.292Z,38.47
2019-03-28T11:03:08.321Z,38.11
2019-03-28T11:04:08.033Z,38.16
2019-03-28T11:05:08.053Z,38.49
2019-03-28T11:06:08.222Z,38.19
2019-03-28T11:07:08.072Z,38.06
2019-03-28T11:08:08.121Z,38.1
2019-03-28T11:09:08.837Z,38.03
2019-03-28T11:10:08.095Z,38.29
2019-03-28T11:11:08.130Z,38.07
2019-03-28T11:12:08.130Z,38.36
2019-03-28T11:13:10.001Z,38.29
2019-03-28T11:14:08.178Z,38.49
2019-03-28T11:15:08.277Z,38.42
2019-03-28T11:16:08.320Z,38.46
2019-03-28T11:17:08.213Z,38.45
2019-03-28T11:18:08.125Z,38.34
2019-03-28T11:19:08.290Z,38.13
2019-03-28T11:20:08.427Z,38.29
2019-03-28T11:21:08.308Z,38.4
2019-03-28T11:22:08.259Z,38.22
2019-03-28T11:23:08.069Z,38.24
2019-03-28T11:24:08.273Z,38.24
2019-03-28T11:25:08.275Z,38.27
2019-03-28T11:26:08.098Z,38.15
2019-03-28T11:27:08.202Z,38.36
2019-03-28T11:28:08.304Z,38.2
2019-03-28T11:29:08.291Z,38.34
2019-03-28T11:30:08.157Z,38.14
2019-03-28T11:31:08.176Z,38.19
2019-03-28T11:32:08.191Z,38.18
2019-03-28T11:33:08.216Z,38.03
2019-03-28T11:34:08.325Z,38.08
2019-03-28T11:35:08.361Z,38.03
2019-03-28T11:36:08.233Z,38.02
2019-03-28T11:37:25.212Z,38.1
2019-03-28T11:38:10.005Z,38.04
2019-03-28T11:39:08.329Z,37.97
2019-03-28T11:40:09.648Z,38.08
2019-03-28T11:41:08.987Z,37.98
2019-03-28T11:42:08.015Z,37.92
2019-03-28T11:43:08.066Z,37.88
2019-03-28T11:44:08.069Z,37.88
2019-03-28T11:45:09.970Z,37.87
2019-03-28T11:46:08.091Z,37.79
2019-03-28T11:47:08.091Z,37.8
2019-03-28T11:48:08.122Z,37.79
2019-03-28T11:49:08.191Z,37.78
2019-03-28T11:50:08.253Z,37.79
2019-03-28T11:51:08.143Z,37.77
2019-03-28T11:52:08.194Z,37.8
2019-03-28T11:53:08.172Z,37.8
2019-03-28T11:54:08.232Z,37.83
2019-03-28T11:55:08.216Z,37.81
2019-03-28T11:56:08.271Z,37.82
2019-03-28T11:57:08.206Z,37.78
2019-03-28T11:58:08.263Z,37.82
2019-03-28T11:59:08.145Z,37.82
2019-03-28T12:00:08.072Z,37.78
2019-03-28T12:01:08.079Z,37.77
2019-03-28T12:02:20.579Z,37.77
2019-03-28T12:03:08.096Z,37.79
2019-03-28T12:04:08.540Z,37.75
2019-03-28T12:05:08.140Z,37.75
2019-03-28T12:06:08.267Z,37.76
2019-03-28T12:07:08.191Z,37.75
2019-03-28T12:08:08.152Z,37.77
2019-03-28T12:09:08.215Z,37.76
2019-03-28T12:10:08.189Z,37.72
2019-03-28T12:11:08.186Z,37.79
2019-03-28T12:12:08.185Z,37.78
2019-03-28T12:13:08.227Z,37.75
2019-03-28T12:14:08.263Z,37.73
2019-03-28T12:15:08.322Z,37.79
2019-03-28T12:16:08.257Z,37.75
2019-03-28T12:17:08.334Z,37.77
2019-03-28T12:18:08.228Z,37.8
2019-03-28T12:19:08.003Z,37.75
2019-03-28T12:20:08.018Z,37.75
2019-03-28T12:21:08.023Z,37.74
2019-03-28T12:22:09.182Z,37.74
2019-03-28T12:23:08.164Z,37.8
2019-03-28T12:24:08.169Z,37.76
2019-03-28T12:25:08.124Z,37.77
2019-03-28T12:26:08.105Z,37.78
2019-03-28T12:27:08.130Z,37.77
2019-03-28T12:28:08.121Z,37.8
2019-03-28T12:29:08.134Z,37.78
2019-03-28T12:30:08.235Z,37.78
2019-03-28T12:31:08.354Z,37.74
2019-03-28T12:32:14.547Z,37.73
2019-03-28T12:33:08.358Z,37.77
2019-03-28T12:34:08.273Z,37.77
2019-03-28T12:35:08.421Z,37.77
2019-03-28T12:36:08.061Z,37.73
2019-03-28T12:37:08.038Z,37.79
2019-03-28T12:38:08.141Z,37.76
2019-03-28T12:39:08.135Z,37.75
2019-03-28T12:40:08.133Z,37.81
2019-03-28T12:41:08.212Z,37.78
2019-03-28T12:42:08.134Z,37.79
2019-03-28T12:43:08.190Z,37.79
2019-03-28T12:44:08.140Z,37.77
2019-03-28T12:45:08.243Z,37.78
2019-03-28T12:46:08.211Z,37.77
2019-03-28T12:47:08.176Z,37.75
2019-03-28T12:48:08.260Z,37.8
2019-03-28T12:49:08.255Z,37.75
2019-03-28T12:50:07.963Z,37.75
2019-03-28T12:51:08.238Z,37.76
2019-03-28T12:52:08.343Z,37.83
2019-03-28T12:53:08.304Z,38.02
2019-03-28T12:54:07.946Z,37.91
2019-03-28T12:55:08.050Z,38.07